sensor_id;sensor_type;location;lat;lon;timestamp;temperature;humidity
5334;DHT22;2689;50.954;7.116;2023-08-30T00:00:31;14.60;99.90
5334;DHT22;2689;50.954;7.116;2023-08-30T00:02:58;14.60;99.90
5334;DHT22;2689;50.954;7.116;2023-08-30T00:05:25;14.70;99.90
5334;DHT22;2689;50.954;7.116;2023-08-30T00:07:53;14.70;99.90
5334;DHT22;2689;50.954;7.116;2023-08-30T00:10:21;14.70;99.90
5334;DHT22;2689;50.954;7.116;2023-08-30T00:12:47;14.70;99.90
5334;DHT22;2689;50.954;7.116;2023-08-30T00:15:15;14.60;99.90
5334;DHT22;2689;50.954;7.116;2023-08-30T00:17:41;14.60;99.90
5334;DHT22;2689;50.954;7.116;2023-08-30T00:20:09;14.60;99.90
5334;DHT22;2689;50.954;7.116;2023-08-30T00:22:37;14.60;99.90
5334;DHT22;2689;50.954;7.116;2023-08-30T00:25:04;14.60;99.90
5334;DHT22;2689;50.954;7.116;2023-08-30T00:27:32;14.60;99.90
5334;DHT22;2689;50.954;7.116;2023-08-30T00:29:59;14.60;99.90
5334;DHT22;2689;50.954;7.116;2023-08-30T00:32:25;14.60;99.90
5334;DHT22;2689;50.954;7.116;2023-08-30T00:34:52;14.60;99.90
5334;DHT22;2689;50.954;7.116;2023-08-30T00:37:19;14.50;99.90
5334;DHT22;2689;50.954;7.116;2023-08-30T00:39:45;14.50;99.90
5334;DHT22;2689;50.954;7.116;2023-08-30T00:42:12;14.50;99.90
5334;DHT22;2689;50.954;7.116;2023-08-30T00:44:40;14.50;99.90
5334;DHT22;2689;50.954;7.116;2023-08-30T00:47:07;14.40;99.90
5334;DHT22;2689;50.954;7.116;2023-08-30T00:49:34;14.40;99.90
5334;DHT22;2689;50.954;7.116;2023-08-30T00:52:04;14.40;99.90
5334;DHT22;2689;50.954;7.116;2023-08-30T00:54:31;14.40;99.90
5334;DHT22;2689;50.954;7.116;2023-08-30T00:57:00;14.50;99.90
5334;DHT22;2689;50.954;7.116;2023-08-30T00:59:27;14.50;99.90
5334;DHT22;2689;50.954;7.116;2023-08-30T01:01:55;14.50;99.90
5334;DHT22;2689;50.954;7.116;2023-08-30T01:04:22;14.50;99.90
5334;DHT22;2689;50.954;7.116;2023-08-30T01:06:50;14.50;99.90
5334;DHT22;2689;50.954;7.116;2023-08-30T01:09:18;14.50;99.90
5334;DHT22;2689;50.954;7.116;2023-08-30T01:11:50;14.50;99.90
5334;DHT22;2689;50.954;7.116;2023-08-30T01:14:21;14.50;99.90
5334;DHT22;2689;50.954;7.116;2023-08-30T01:16:49;14.50;99.90
5334;DHT22;2689;50.954;7.116;2023-08-30T01:19:31;14.50;99.90
5334;DHT22;2689;50.954;7.116;2023-08-30T01:22:05;14.60;99.90
5334;DHT22;2689;50.954;7.116;2023-08-30T01:24:52;14.70;99.90
5334;DHT22;2689;50.954;7.116;2023-08-30T01:27:24;14.60;99.90
5334;DHT22;2689;50.954;7.116;2023-08-30T01:29:54;14.60;99.90
5334;DHT22;2689;50.954;7.116;2023-08-30T01:32:23;14.60;99.90
5334;DHT22;2689;50.954;7.116;2023-08-30T01:34:51;14.60;99.90
5334;DHT22;2689;50.954;7.116;2023-08-30T01:37:19;14.70;99.90
5334;DHT22;2689;50.954;7.116;2023-08-30T01:39:46;14.80;99.90
5334;DHT22;2689;50.954;7.116;2023-08-30T01:42:13;14.80;99.90
5334;DHT22;2689;50.954;7.116;2023-08-30T01:44:44;14.80;99.90
5334;DHT22;2689;50.954;7.116;2023-08-30T01:47:11;14.80;99.90
5334;DHT22;2689;50.954;7.116;2023-08-30T01:49:38;14.80;99.90
5334;DHT22;2689;50.954;7.116;2023-08-30T01:52:06;14.80;99.90
5334;DHT22;2689;50.954;7.116;2023-08-30T01:54:34;14.80;99.90
5334;DHT22;2689;50.954;7.116;2023-08-30T01:57:01;14.80;99.90
5334;DHT22;2689;50.954;7.116;2023-08-30T01:59:27;14.80;99.90
5334;DHT22;2689;50.954;7.116;2023-08-30T02:01:57;14.80;99.90
5334;DHT22;2689;50.954;7.116;2023-08-30T02:04:23;14.90;99.90
5334;DHT22;2689;50.954;7.116;2023-08-30T02:06:54;14.80;99.90
5334;DHT22;2689;50.954;7.116;2023-08-30T02:09:26;14.90;99.90
5334;DHT22;2689;50.954;7.116;2023-08-30T02:11:54;14.90;99.90
5334;DHT22;2689;50.954;7.116;2023-08-30T02:14:22;14.90;99.90
5334;DHT22;2689;50.954;7.116;2023-08-30T02:16:51;14.90;99.90
5334;DHT22;2689;50.954;7.116;2023-08-30T02:19:20;14.80;99.90
5334;DHT22;2689;50.954;7.116;2023-08-30T02:21:47;14.80;99.90
5334;DHT22;2689;50.954;7.116;2023-08-30T02:24:14;14.80;99.90
5334;DHT22;2689;50.954;7.116;2023-08-30T02:26:41;14.80;99.90
5334;DHT22;2689;50.954;7.116;2023-08-30T02:29:07;14.90;99.90
5334;DHT22;2689;50.954;7.116;2023-08-30T02:31:35;14.80;99.90
5334;DHT22;2689;50.954;7.116;2023-08-30T02:34:02;14.90;99.90
5334;DHT22;2689;50.954;7.116;2023-08-30T02:36:30;14.90;99.90
5334;DHT22;2689;50.954;7.116;2023-08-30T02:38:56;14.90;99.90
5334;DHT22;2689;50.954;7.116;2023-08-30T02:41:23;14.90;99.90
5334;DHT22;2689;50.954;7.116;2023-08-30T02:43:50;14.90;99.90
5334;DHT22;2689;50.954;7.116;2023-08-30T02:46:17;14.90;99.90
5334;DHT22;2689;50.954;7.116;2023-08-30T02:48:43;14.80;99.90
5334;DHT22;2689;50.954;7.116;2023-08-30T02:51:10;14.80;99.90
5334;DHT22;2689;50.954;7.116;2023-08-30T02:53:38;14.90;99.90
5334;DHT22;2689;50.954;7.116;2023-08-30T02:56:05;14.80;99.90
5334;DHT22;2689;50.954;7.116;2023-08-30T02:58:32;14.80;99.90
5334;DHT22;2689;50.954;7.116;2023-08-30T03:00:59;14.80;99.90
5334;DHT22;2689;50.954;7.116;2023-08-30T03:03:26;14.70;99.90
5334;DHT22;2689;50.954;7.116;2023-08-30T03:05:53;14.70;99.90
5334;DHT22;2689;50.954;7.116;2023-08-30T03:08:19;14.70;99.90
5334;DHT22;2689;50.954;7.116;2023-08-30T03:10:48;14.70;99.90
5334;DHT22;2689;50.954;7.116;2023-08-30T03:13:23;14.70;99.90
5334;DHT22;2689;50.954;7.116;2023-08-30T03:15:49;14.60;99.90
5334;DHT22;2689;50.954;7.116;2023-08-30T03:18:16;14.70;99.90
5334;DHT22;2689;50.954;7.116;2023-08-30T03:20:43;14.70;99.90
5334;DHT22;2689;50.954;7.116;2023-08-30T03:23:09;14.70;99.90
5334;DHT22;2689;50.954;7.116;2023-08-30T03:25:36;14.70;99.90
5334;DHT22;2689;50.954;7.116;2023-08-30T03:28:05;14.70;99.90
5334;DHT22;2689;50.954;7.116;2023-08-30T03:30:32;14.60;99.90
5334;DHT22;2689;50.954;7.116;2023-08-30T03:32:58;14.60;99.90
5334;DHT22;2689;50.954;7.116;2023-08-30T03:35:25;14.50;99.90
5334;DHT22;2689;50.954;7.116;2023-08-30T03:37:52;14.50;99.90
5334;DHT22;2689;50.954;7.116;2023-08-30T03:40:19;14.40;99.90
5334;DHT22;2689;50.954;7.116;2023-08-30T03:42:46;14.40;99.90
5334;DHT22;2689;50.954;7.116;2023-08-30T03:45:14;14.30;99.90
5334;DHT22;2689;50.954;7.116;2023-08-30T03:47:41;14.30;99.90
5334;DHT22;2689;50.954;7.116;2023-08-30T03:50:08;14.30;99.90
5334;DHT22;2689;50.954;7.116;2023-08-30T03:52:35;14.20;99.90
5334;DHT22;2689;50.954;7.116;2023-08-30T03:55:02;14.20;99.90
5334;DHT22;2689;50.954;7.116;2023-08-30T03:57:29;14.20;99.90
5334;DHT22;2689;50.954;7.116;2023-08-30T03:59:56;14.20;99.90
5334;DHT22;2689;50.954;7.116;2023-08-30T04:02:24;14.20;99.90
5334;DHT22;2689;50.954;7.116;2023-08-30T04:04:50;14.20;99.90
5334;DHT22;2689;50.954;7.116;2023-08-30T04:07:17;14.10;99.90
5334;DHT22;2689;50.954;7.116;2023-08-30T04:09:44;14.10;99.90
5334;DHT22;2689;50.954;7.116;2023-08-30T04:12:10;14.00;99.90
5334;DHT22;2689;50.954;7.116;2023-08-30T04:14:37;14.00;99.90
5334;DHT22;2689;50.954;7.116;2023-08-30T04:17:24;13.90;99.90
5334;DHT22;2689;50.954;7.116;2023-08-30T04:19:51;13.90;99.90
5334;DHT22;2689;50.954;7.116;2023-08-30T04:22:18;13.90;99.90
5334;DHT22;2689;50.954;7.116;2023-08-30T04:24:46;13.80;99.90
5334;DHT22;2689;50.954;7.116;2023-08-30T04:27:13;13.90;99.90
5334;DHT22;2689;50.954;7.116;2023-08-30T04:29:39;13.80;99.90
5334;DHT22;2689;50.954;7.116;2023-08-30T04:32:10;13.80;99.90
5334;DHT22;2689;50.954;7.116;2023-08-30T04:34:38;13.80;99.90
5334;DHT22;2689;50.954;7.116;2023-08-30T04:37:05;13.80;99.90
5334;DHT22;2689;50.954;7.116;2023-08-30T04:39:32;13.70;99.90
5334;DHT22;2689;50.954;7.116;2023-08-30T04:41:58;13.70;99.90
5334;DHT22;2689;50.954;7.116;2023-08-30T04:44:26;13.70;99.90
5334;DHT22;2689;50.954;7.116;2023-08-30T04:46:53;13.70;99.90
5334;DHT22;2689;50.954;7.116;2023-08-30T04:49:20;13.70;99.90
5334;DHT22;2689;50.954;7.116;2023-08-30T04:51:48;13.70;99.90
5334;DHT22;2689;50.954;7.116;2023-08-30T04:54:15;13.60;99.90
5334;DHT22;2689;50.954;7.116;2023-08-30T04:56:42;13.60;99.90
5334;DHT22;2689;50.954;7.116;2023-08-30T04:59:09;13.60;99.90
5334;DHT22;2689;50.954;7.116;2023-08-30T05:01:36;13.60;99.90
5334;DHT22;2689;50.954;7.116;2023-08-30T05:04:04;13.60;99.90
5334;DHT22;2689;50.954;7.116;2023-08-30T05:06:32;13.60;99.90
5334;DHT22;2689;50.954;7.116;2023-08-30T05:09:00;13.60;99.90
5334;DHT22;2689;50.954;7.116;2023-08-30T05:11:28;13.60;99.90
5334;DHT22;2689;50.954;7.116;2023-08-30T05:13:55;13.60;99.90
5334;DHT22;2689;50.954;7.116;2023-08-30T05:16:28;13.60;99.90
5334;DHT22;2689;50.954;7.116;2023-08-30T05:18:55;13.60;99.90
5334;DHT22;2689;50.954;7.116;2023-08-30T05:21:22;13.60;99.90
5334;DHT22;2689;50.954;7.116;2023-08-30T05:23:48;13.60;99.90
5334;DHT22;2689;50.954;7.116;2023-08-30T05:26:16;13.60;99.90
5334;DHT22;2689;50.954;7.116;2023-08-30T05:28:45;13.60;99.90
5334;DHT22;2689;50.954;7.116;2023-08-30T05:31:11;13.60;99.90
5334;DHT22;2689;50.954;7.116;2023-08-30T05:33:38;13.60;99.90
5334;DHT22;2689;50.954;7.116;2023-08-30T05:36:05;13.60;99.90
5334;DHT22;2689;50.954;7.116;2023-08-30T05:38:32;13.60;99.90
5334;DHT22;2689;50.954;7.116;2023-08-30T05:40:58;13.70;99.90
5334;DHT22;2689;50.954;7.116;2023-08-30T05:43:26;13.70;99.90
5334;DHT22;2689;50.954;7.116;2023-08-30T05:45:53;13.70;99.90
5334;DHT22;2689;50.954;7.116;2023-08-30T05:48:20;13.70;99.90
5334;DHT22;2689;50.954;7.116;2023-08-30T05:50:47;13.70;99.90
5334;DHT22;2689;50.954;7.116;2023-08-30T05:53:13;13.80;99.90
5334;DHT22;2689;50.954;7.116;2023-08-30T05:55:40;13.80;99.90
5334;DHT22;2689;50.954;7.116;2023-08-30T05:58:07;13.80;99.90
5334;DHT22;2689;50.954;7.116;2023-08-30T06:00:35;13.90;99.90
5334;DHT22;2689;50.954;7.116;2023-08-30T06:03:02;13.90;99.90
5334;DHT22;2689;50.954;7.116;2023-08-30T06:05:32;14.00;99.90
5334;DHT22;2689;50.954;7.116;2023-08-30T06:07:59;14.00;99.90
5334;DHT22;2689;50.954;7.116;2023-08-30T06:10:27;14.00;99.90
5334;DHT22;2689;50.954;7.116;2023-08-30T06:12:54;14.00;99.90
5334;DHT22;2689;50.954;7.116;2023-08-30T06:15:21;14.10;99.90
5334;DHT22;2689;50.954;7.116;2023-08-30T06:17:49;14.10;99.90
5334;DHT22;2689;50.954;7.116;2023-08-30T06:20:16;14.20;99.90
5334;DHT22;2689;50.954;7.116;2023-08-30T06:22:43;14.30;99.90
5334;DHT22;2689;50.954;7.116;2023-08-30T06:25:09;14.40;99.90
5334;DHT22;2689;50.954;7.116;2023-08-30T06:27:41;14.40;99.90
5334;DHT22;2689;50.954;7.116;2023-08-30T06:30:10;14.40;99.90
5334;DHT22;2689;50.954;7.116;2023-08-30T06:32:36;14.50;99.90
5334;DHT22;2689;50.954;7.116;2023-08-30T06:35:05;14.60;99.90
5334;DHT22;2689;50.954;7.116;2023-08-30T06:37:32;14.70;99.90
5334;DHT22;2689;50.954;7.116;2023-08-30T06:39:59;14.80;99.90
5334;DHT22;2689;50.954;7.116;2023-08-30T06:42:26;14.80;99.90
5334;DHT22;2689;50.954;7.116;2023-08-30T06:44:53;14.90;99.90
5334;DHT22;2689;50.954;7.116;2023-08-30T06:47:20;15.00;99.90
5334;DHT22;2689;50.954;7.116;2023-08-30T06:49:46;15.10;99.90
5334;DHT22;2689;50.954;7.116;2023-08-30T06:52:15;15.20;99.90
5334;DHT22;2689;50.954;7.116;2023-08-30T06:54:41;15.30;99.90
5334;DHT22;2689;50.954;7.116;2023-08-30T06:57:08;15.50;99.90
5334;DHT22;2689;50.954;7.116;2023-08-30T06:59:35;15.70;99.90
5334;DHT22;2689;50.954;7.116;2023-08-30T07:02:02;15.80;99.90
5334;DHT22;2689;50.954;7.116;2023-08-30T07:04:28;15.90;99.90
5334;DHT22;2689;50.954;7.116;2023-08-30T07:06:55;16.20;99.90
5334;DHT22;2689;50.954;7.116;2023-08-30T07:09:23;16.40;99.90
5334;DHT22;2689;50.954;7.116;2023-08-30T07:11:54;16.50;99.90
5334;DHT22;2689;50.954;7.116;2023-08-30T07:14:21;16.60;99.90
5334;DHT22;2689;50.954;7.116;2023-08-30T07:16:50;16.80;99.90
5334;DHT22;2689;50.954;7.116;2023-08-30T07:19:16;16.90;99.90
5334;DHT22;2689;50.954;7.116;2023-08-30T07:21:43;17.20;99.90
5334;DHT22;2689;50.954;7.116;2023-08-30T07:24:11;17.30;99.90
5334;DHT22;2689;50.954;7.116;2023-08-30T07:26:39;17.40;99.90
5334;DHT22;2689;50.954;7.116;2023-08-30T07:29:06;17.60;99.90
5334;DHT22;2689;50.954;7.116;2023-08-30T07:31:33;17.80;99.90
5334;DHT22;2689;50.954;7.116;2023-08-30T07:33:59;17.90;99.90
5334;DHT22;2689;50.954;7.116;2023-08-30T07:36:26;18.20;99.90
5334;DHT22;2689;50.954;7.116;2023-08-30T07:38:53;18.80;99.90
5334;DHT22;2689;50.954;7.116;2023-08-30T07:41:20;19.00;99.90
5334;DHT22;2689;50.954;7.116;2023-08-30T07:43:48;19.40;99.30
5334;DHT22;2689;50.954;7.116;2023-08-30T07:46:15;19.90;97.30
5334;DHT22;2689;50.954;7.116;2023-08-30T07:48:42;20.70;97.20
5334;DHT22;2689;50.954;7.116;2023-08-30T07:51:09;21.50;93.90
5334;DHT22;2689;50.954;7.116;2023-08-30T07:53:35;22.00;92.80
5334;DHT22;2689;50.954;7.116;2023-08-30T07:56:02;22.20;91.40
5334;DHT22;2689;50.954;7.116;2023-08-30T07:58:29;22.80;90.70
5334;DHT22;2689;50.954;7.116;2023-08-30T08:00:57;23.50;89.60
5334;DHT22;2689;50.954;7.116;2023-08-30T08:03:24;24.40;87.60
5334;DHT22;2689;50.954;7.116;2023-08-30T08:05:51;24.80;81.70
5334;DHT22;2689;50.954;7.116;2023-08-30T08:08:17;24.90;79.20
5334;DHT22;2689;50.954;7.116;2023-08-30T08:10:45;24.80;79.90
5334;DHT22;2689;50.954;7.116;2023-08-30T08:13:12;25.10;79.30
5334;DHT22;2689;50.954;7.116;2023-08-30T08:15:39;25.50;77.90
5334;DHT22;2689;50.954;7.116;2023-08-30T08:18:07;25.60;76.00
5334;DHT22;2689;50.954;7.116;2023-08-30T08:20:34;26.00;75.30
5334;DHT22;2689;50.954;7.116;2023-08-30T08:23:02;26.70;73.80
5334;DHT22;2689;50.954;7.116;2023-08-30T08:25:29;27.70;72.00
5334;DHT22;2689;50.954;7.116;2023-08-30T08:27:55;28.50;68.20
5334;DHT22;2689;50.954;7.116;2023-08-30T08:30:22;29.20;65.90
5334;DHT22;2689;50.954;7.116;2023-08-30T08:32:49;28.50;62.90
5334;DHT22;2689;50.954;7.116;2023-08-30T08:35:17;28.00;64.70
5334;DHT22;2689;50.954;7.116;2023-08-30T08:37:44;27.80;64.30
5334;DHT22;2689;50.954;7.116;2023-08-30T08:40:11;27.70;65.10
5334;DHT22;2689;50.954;7.116;2023-08-30T08:42:37;27.70;64.50
5334;DHT22;2689;50.954;7.116;2023-08-30T08:45:05;27.70;62.70
5334;DHT22;2689;50.954;7.116;2023-08-30T08:47:33;27.70;63.50
5334;DHT22;2689;50.954;7.116;2023-08-30T08:50:00;27.60;64.20
5334;DHT22;2689;50.954;7.116;2023-08-30T08:52:30;28.20;64.60
5334;DHT22;2689;50.954;7.116;2023-08-30T08:54:57;28.90;60.70
5334;DHT22;2689;50.954;7.116;2023-08-30T08:57:26;28.90;60.30
5334;DHT22;2689;50.954;7.116;2023-08-30T08:59:55;28.80;60.30
5334;DHT22;2689;50.954;7.116;2023-08-30T09:02:22;29.20;59.90
5334;DHT22;2689;50.954;7.116;2023-08-30T09:04:49;28.80;59.00
5334;DHT22;2689;50.954;7.116;2023-08-30T09:07:17;29.20;59.20
5334;DHT22;2689;50.954;7.116;2023-08-30T09:09:46;29.70;57.90
5334;DHT22;2689;50.954;7.116;2023-08-30T09:12:13;29.70;57.10
5334;DHT22;2689;50.954;7.116;2023-08-30T09:14:40;29.50;57.70
5334;DHT22;2689;50.954;7.116;2023-08-30T09:17:07;29.20;56.00
5334;DHT22;2689;50.954;7.116;2023-08-30T09:19:33;28.30;57.90
5334;DHT22;2689;50.954;7.116;2023-08-30T09:22:00;28.50;59.10
5334;DHT22;2689;50.954;7.116;2023-08-30T09:24:38;29.10;58.30
5334;DHT22;2689;50.954;7.116;2023-08-30T09:27:06;29.60;56.20
5334;DHT22;2689;50.954;7.116;2023-08-30T09:29:33;28.90;56.70
5334;DHT22;2689;50.954;7.116;2023-08-30T09:32:01;28.30;57.90
5334;DHT22;2689;50.954;7.116;2023-08-30T09:34:28;27.10;57.40
5334;DHT22;2689;50.954;7.116;2023-08-30T09:36:55;26.10;59.10
5334;DHT22;2689;50.954;7.116;2023-08-30T09:39:21;25.30;60.30
5334;DHT22;2689;50.954;7.116;2023-08-30T09:41:49;24.30;62.30
5334;DHT22;2689;50.954;7.116;2023-08-30T09:44:19;23.80;63.30
5334;DHT22;2689;50.954;7.116;2023-08-30T09:46:49;23.20;65.00
5334;DHT22;2689;50.954;7.116;2023-08-30T09:49:20;22.80;67.00
5334;DHT22;2689;50.954;7.116;2023-08-30T09:51:48;22.20;70.30
5334;DHT22;2689;50.954;7.116;2023-08-30T09:54:16;22.10;73.40
5334;DHT22;2689;50.954;7.116;2023-08-30T09:56:44;21.40;75.40
5334;DHT22;2689;50.954;7.116;2023-08-30T09:59:12;21.10;78.50
5334;DHT22;2689;50.954;7.116;2023-08-30T10:01:42;21.00;80.60
5334;DHT22;2689;50.954;7.116;2023-08-30T10:04:10;20.90;81.70
5334;DHT22;2689;50.954;7.116;2023-08-30T10:06:37;20.90;82.00
5334;DHT22;2689;50.954;7.116;2023-08-30T10:09:04;20.80;81.80
5334;DHT22;2689;50.954;7.116;2023-08-30T10:11:34;20.90;82.80
5334;DHT22;2689;50.954;7.116;2023-08-30T10:14:02;20.90;82.80
5334;DHT22;2689;50.954;7.116;2023-08-30T10:16:32;20.70;81.90
5334;DHT22;2689;50.954;7.116;2023-08-30T10:19:07;20.30;82.40
5334;DHT22;2689;50.954;7.116;2023-08-30T10:21:35;20.20;85.40
5334;DHT22;2689;50.954;7.116;2023-08-30T10:24:05;20.00;86.90
5334;DHT22;2689;50.954;7.116;2023-08-30T10:26:32;20.00;88.70
5334;DHT22;2689;50.954;7.116;2023-08-30T10:28:59;19.90;88.70
5334;DHT22;2689;50.954;7.116;2023-08-30T10:31:27;19.80;90.30
5334;DHT22;2689;50.954;7.116;2023-08-30T10:33:54;19.70;91.90
5334;DHT22;2689;50.954;7.116;2023-08-30T10:36:23;19.60;92.20
5334;DHT22;2689;50.954;7.116;2023-08-30T10:38:51;19.40;94.50
5334;DHT22;2689;50.954;7.116;2023-08-30T10:41:22;19.30;94.70
5334;DHT22;2689;50.954;7.116;2023-08-30T10:43:50;19.30;95.30
5334;DHT22;2689;50.954;7.116;2023-08-30T10:46:29;19.20;97.00
5334;DHT22;2689;50.954;7.116;2023-08-30T10:49:08;19.00;96.60
5334;DHT22;2689;50.954;7.116;2023-08-30T10:51:38;18.90;96.70
5334;DHT22;2689;50.954;7.116;2023-08-30T10:54:12;19.00;98.30
5334;DHT22;2689;50.954;7.116;2023-08-30T10:56:54;19.30;99.40
5334;DHT22;2689;50.954;7.116;2023-08-30T10:59:22;19.20;99.70
5334;DHT22;2689;50.954;7.116;2023-08-30T11:01:52;19.20;99.80
5334;DHT22;2689;50.954;7.116;2023-08-30T11:04:19;19.20;99.60
5334;DHT22;2689;50.954;7.116;2023-08-30T11:06:49;19.10;99.80
5334;DHT22;2689;50.954;7.116;2023-08-30T11:09:20;19.00;99.90
5334;DHT22;2689;50.954;7.116;2023-08-30T11:11:48;19.10;99.90
5334;DHT22;2689;50.954;7.116;2023-08-30T11:14:16;19.50;99.90
5334;DHT22;2689;50.954;7.116;2023-08-30T11:16:44;20.50;99.90
5334;DHT22;2689;50.954;7.116;2023-08-30T11:19:11;21.40;94.90
5334;DHT22;2689;50.954;7.116;2023-08-30T11:21:39;21.40;94.00
5334;DHT22;2689;50.954;7.116;2023-08-30T11:24:08;21.20;93.20
5334;DHT22;2689;50.954;7.116;2023-08-30T11:26:36;21.00;93.30
5334;DHT22;2689;50.954;7.116;2023-08-30T11:29:06;20.80;93.60
5334;DHT22;2689;50.954;7.116;2023-08-30T11:31:33;20.60;94.40
5334;DHT22;2689;50.954;7.116;2023-08-30T11:34:00;20.40;94.30
5334;DHT22;2689;50.954;7.116;2023-08-30T11:36:28;20.20;95.10
5334;DHT22;2689;50.954;7.116;2023-08-30T11:38:56;19.70;97.80
5334;DHT22;2689;50.954;7.116;2023-08-30T11:41:24;19.10;99.90
5334;DHT22;2689;50.954;7.116;2023-08-30T11:43:52;18.60;99.90
5334;DHT22;2689;50.954;7.116;2023-08-30T11:46:19;18.00;99.90
5334;DHT22;2689;50.954;7.116;2023-08-30T11:48:48;17.60;99.90
5334;DHT22;2689;50.954;7.116;2023-08-30T11:51:16;17.30;99.90
5334;DHT22;2689;50.954;7.116;2023-08-30T11:53:44;17.30;99.90
5334;DHT22;2689;50.954;7.116;2023-08-30T11:56:11;17.10;99.90
5334;DHT22;2689;50.954;7.116;2023-08-30T11:58:40;17.00;99.90
5334;DHT22;2689;50.954;7.116;2023-08-30T12:01:07;16.80;99.90
5334;DHT22;2689;50.954;7.116;2023-08-30T12:03:35;16.80;99.90
5334;DHT22;2689;50.954;7.116;2023-08-30T12:06:02;16.80;99.90
5334;DHT22;2689;50.954;7.116;2023-08-30T12:08:30;16.70;99.90
5334;DHT22;2689;50.954;7.116;2023-08-30T12:10:58;16.70;99.90
5334;DHT22;2689;50.954;7.116;2023-08-30T12:13:25;16.60;99.90
5334;DHT22;2689;50.954;7.116;2023-08-30T12:15:54;16.60;99.90
5334;DHT22;2689;50.954;7.116;2023-08-30T12:18:21;16.60;99.90
5334;DHT22;2689;50.954;7.116;2023-08-30T12:20:54;16.70;99.90
5334;DHT22;2689;50.954;7.116;2023-08-30T12:23:27;16.60;99.90
5334;DHT22;2689;50.954;7.116;2023-08-30T12:25:58;16.60;99.90
5334;DHT22;2689;50.954;7.116;2023-08-30T12:28:25;16.70;99.90
5334;DHT22;2689;50.954;7.116;2023-08-30T12:30:56;16.70;99.90
5334;DHT22;2689;50.954;7.116;2023-08-30T12:33:23;16.80;99.90
5334;DHT22;2689;50.954;7.116;2023-08-30T12:35:51;16.70;99.90
5334;DHT22;2689;50.954;7.116;2023-08-30T12:38:18;16.80;99.90
5334;DHT22;2689;50.954;7.116;2023-08-30T12:40:45;16.80;99.90
5334;DHT22;2689;50.954;7.116;2023-08-30T12:43:12;16.80;99.90
5334;DHT22;2689;50.954;7.116;2023-08-30T12:45:40;16.70;99.90
5334;DHT22;2689;50.954;7.116;2023-08-30T12:48:08;16.70;99.90
5334;DHT22;2689;50.954;7.116;2023-08-30T12:50:36;16.80;99.90
5334;DHT22;2689;50.954;7.116;2023-08-30T12:53:03;16.80;99.90
5334;DHT22;2689;50.954;7.116;2023-08-30T12:55:30;16.80;99.90
5334;DHT22;2689;50.954;7.116;2023-08-30T12:57:57;16.80;99.90
5334;DHT22;2689;50.954;7.116;2023-08-30T13:00:24;16.80;99.90
5334;DHT22;2689;50.954;7.116;2023-08-30T13:02:51;16.60;99.90
5334;DHT22;2689;50.954;7.116;2023-08-30T13:05:20;16.50;99.90
5334;DHT22;2689;50.954;7.116;2023-08-30T13:07:47;16.30;99.90
5334;DHT22;2689;50.954;7.116;2023-08-30T13:10:14;16.30;99.90
5334;DHT22;2689;50.954;7.116;2023-08-30T13:12:42;16.20;99.90
5334;DHT22;2689;50.954;7.116;2023-08-30T13:15:10;16.20;99.90
5334;DHT22;2689;50.954;7.116;2023-08-30T13:17:37;16.20;99.90
5334;DHT22;2689;50.954;7.116;2023-08-30T13:20:04;16.20;99.90
5334;DHT22;2689;50.954;7.116;2023-08-30T13:22:33;16.10;99.90
5334;DHT22;2689;50.954;7.116;2023-08-30T13:24:59;16.10;99.90
5334;DHT22;2689;50.954;7.116;2023-08-30T13:27:26;16.10;99.90
5334;DHT22;2689;50.954;7.116;2023-08-30T13:29:53;16.10;99.90
5334;DHT22;2689;50.954;7.116;2023-08-30T13:32:19;16.00;99.90
5334;DHT22;2689;50.954;7.116;2023-08-30T13:34:46;16.00;99.90
5334;DHT22;2689;50.954;7.116;2023-08-30T13:37:13;16.00;99.90
5334;DHT22;2689;50.954;7.116;2023-08-30T13:39:41;16.00;99.90
5334;DHT22;2689;50.954;7.116;2023-08-30T13:42:08;16.10;99.90
5334;DHT22;2689;50.954;7.116;2023-08-30T13:44:35;16.20;99.90
5334;DHT22;2689;50.954;7.116;2023-08-30T13:47:03;16.30;99.90
5334;DHT22;2689;50.954;7.116;2023-08-30T13:49:30;16.30;99.90
5334;DHT22;2689;50.954;7.116;2023-08-30T13:51:56;16.30;99.90
5334;DHT22;2689;50.954;7.116;2023-08-30T13:54:23;16.30;99.90
5334;DHT22;2689;50.954;7.116;2023-08-30T13:56:51;16.30;99.90
5334;DHT22;2689;50.954;7.116;2023-08-30T13:59:18;16.30;99.90
5334;DHT22;2689;50.954;7.116;2023-08-30T14:01:45;16.30;99.90
5334;DHT22;2689;50.954;7.116;2023-08-30T14:04:12;16.30;99.90
5334;DHT22;2689;50.954;7.116;2023-08-30T14:06:39;16.30;99.90
5334;DHT22;2689;50.954;7.116;2023-08-30T14:09:06;16.30;99.90
5334;DHT22;2689;50.954;7.116;2023-08-30T14:11:33;16.20;99.90
5334;DHT22;2689;50.954;7.116;2023-08-30T14:14:02;16.20;99.90
5334;DHT22;2689;50.954;7.116;2023-08-30T14:16:29;16.30;99.90
5334;DHT22;2689;50.954;7.116;2023-08-30T14:18:55;16.20;99.90
5334;DHT22;2689;50.954;7.116;2023-08-30T14:21:25;16.20;99.90
5334;DHT22;2689;50.954;7.116;2023-08-30T14:23:52;16.20;99.90
5334;DHT22;2689;50.954;7.116;2023-08-30T14:26:18;16.20;99.90
5334;DHT22;2689;50.954;7.116;2023-08-30T14:28:45;16.10;99.90
5334;DHT22;2689;50.954;7.116;2023-08-30T14:31:13;16.00;99.90
5334;DHT22;2689;50.954;7.116;2023-08-30T14:33:43;16.00;99.90
5334;DHT22;2689;50.954;7.116;2023-08-30T14:36:11;15.90;99.90
5334;DHT22;2689;50.954;7.116;2023-08-30T14:38:38;15.90;99.90
5334;DHT22;2689;50.954;7.116;2023-08-30T14:41:06;15.80;99.90
5334;DHT22;2689;50.954;7.116;2023-08-30T14:43:33;15.80;99.90
5334;DHT22;2689;50.954;7.116;2023-08-30T14:46:00;15.70;99.90
5334;DHT22;2689;50.954;7.116;2023-08-30T14:48:28;15.70;99.90
5334;DHT22;2689;50.954;7.116;2023-08-30T14:50:57;15.60;99.90
5334;DHT22;2689;50.954;7.116;2023-08-30T14:53:24;15.60;99.90
5334;DHT22;2689;50.954;7.116;2023-08-30T14:55:51;15.50;99.90
5334;DHT22;2689;50.954;7.116;2023-08-30T14:58:18;15.50;99.90
5334;DHT22;2689;50.954;7.116;2023-08-30T15:00:47;15.50;99.90
5334;DHT22;2689;50.954;7.116;2023-08-30T15:03:14;15.50;99.90
5334;DHT22;2689;50.954;7.116;2023-08-30T15:05:42;15.60;99.90
5334;DHT22;2689;50.954;7.116;2023-08-30T15:08:09;15.60;99.90
5334;DHT22;2689;50.954;7.116;2023-08-30T15:10:35;15.70;99.90
5334;DHT22;2689;50.954;7.116;2023-08-30T15:13:02;15.80;99.90
5334;DHT22;2689;50.954;7.116;2023-08-30T15:15:30;15.90;99.90
5334;DHT22;2689;50.954;7.116;2023-08-30T15:17:56;16.00;99.90
5334;DHT22;2689;50.954;7.116;2023-08-30T15:20:23;16.20;99.90
5334;DHT22;2689;50.954;7.116;2023-08-30T15:22:52;16.40;99.90
5334;DHT22;2689;50.954;7.116;2023-08-30T15:25:18;16.40;99.90
5334;DHT22;2689;50.954;7.116;2023-08-30T15:27:45;16.50;99.90
5334;DHT22;2689;50.954;7.116;2023-08-30T15:30:13;16.60;99.90
5334;DHT22;2689;50.954;7.116;2023-08-30T15:32:40;16.80;99.90
5334;DHT22;2689;50.954;7.116;2023-08-30T15:35:08;17.00;99.90
5334;DHT22;2689;50.954;7.116;2023-08-30T15:37:35;17.10;99.90
5334;DHT22;2689;50.954;7.116;2023-08-30T15:40:04;17.00;99.90
5334;DHT22;2689;50.954;7.116;2023-08-30T15:42:31;16.90;99.90
5334;DHT22;2689;50.954;7.116;2023-08-30T15:44:58;16.80;99.90
5334;DHT22;2689;50.954;7.116;2023-08-30T15:47:25;16.80;99.90
5334;DHT22;2689;50.954;7.116;2023-08-30T15:49:52;16.90;99.90
5334;DHT22;2689;50.954;7.116;2023-08-30T15:52:19;17.00;99.90
5334;DHT22;2689;50.954;7.116;2023-08-30T15:54:45;17.20;99.90
5334;DHT22;2689;50.954;7.116;2023-08-30T15:57:14;17.20;99.90
5334;DHT22;2689;50.954;7.116;2023-08-30T15:59:40;17.20;99.90
5334;DHT22;2689;50.954;7.116;2023-08-30T16:02:07;17.10;99.90
5334;DHT22;2689;50.954;7.116;2023-08-30T16:04:34;17.20;99.90